createdAt,value
2022-12-09T00:00:49.423Z,7.63
2022-12-09T00:03:36.955Z,8.53
2022-12-09T00:06:27.784Z,8.40
2022-12-09T00:09:16.915Z,7.67
2022-12-09T00:12:03.952Z,8.33
2022-12-09T00:14:50.780Z,7.87
2022-12-09T00:17:37.385Z,7.97
2022-12-09T00:20:24.284Z,8.13
2022-12-09T00:23:12.742Z,8.37
2022-12-09T00:25:59.516Z,7.53
2022-12-09T00:28:47.076Z,7.90
2022-12-09T00:31:37.565Z,9.13
2022-12-09T00:34:24.256Z,8.03
2022-12-09T00:37:10.913Z,8.87
2022-12-09T00:39:59.006Z,7.73
2022-12-09T00:42:45.796Z,8.80
2022-12-09T00:45:32.226Z,7.63
2022-12-09T00:48:18.649Z,7.20
2022-12-09T00:51:06.838Z,9.00
2022-12-09T00:53:55.836Z,7.47
2022-12-09T00:56:44.050Z,8.37
2022-12-09T00:59:30.456Z,7.97
2022-12-09T01:02:17.578Z,6.43
2022-12-09T01:05:04.764Z,7.60
2022-12-09T01:07:51.652Z,7.60
2022-12-09T01:10:42.208Z,8.27
2022-12-09T01:13:30.649Z,8.57
2022-12-09T01:16:20.491Z,7.10
2022-12-09T01:19:12.016Z,6.97
2022-12-09T01:21:58.888Z,7.40
2022-12-09T01:24:45.731Z,7.33
2022-12-09T01:27:33.192Z,7.40
2022-12-09T01:30:21.660Z,8.13
2022-12-09T01:33:08.428Z,7.13
2022-12-09T01:35:55.394Z,7.73
2022-12-09T01:38:42.488Z,7.50
2022-12-09T01:41:30.739Z,8.10
2022-12-09T01:44:23.088Z,7.27
2022-12-09T01:47:23.297Z,6.70
2022-12-09T01:50:11.239Z,6.57
2022-12-09T01:52:58.919Z,10.03
2022-12-09T01:55:46.654Z,8.47
2022-12-09T01:58:33.713Z,7.17
2022-12-09T02:01:20.751Z,8.13
2022-12-09T02:04:10.776Z,7.77
2022-12-09T02:06:59.606Z,8.00
2022-12-09T02:09:46.816Z,8.33
2022-12-09T02:12:42.732Z,7.73
2022-12-09T02:15:38.267Z,7.60
2022-12-09T02:18:32.922Z,7.97
2022-12-09T02:21:35.423Z,8.17
2022-12-09T02:24:35.987Z,8.43
2022-12-09T02:27:31.156Z,7.07
2022-12-09T02:30:21.250Z,7.20
2022-12-09T02:33:27.516Z,7.53
2022-12-09T02:36:21.537Z,7.30
2022-12-09T02:39:10.541Z,7.33
2022-12-09T02:42:00.971Z,6.87
2022-12-09T02:44:51.601Z,7.70
2022-12-09T02:47:44.813Z,7.00
2022-12-09T02:50:37.384Z,7.60
2022-12-09T02:53:27.763Z,7.30
2022-12-09T02:56:18.372Z,6.10
2022-12-09T02:59:09.142Z,6.53
2022-12-09T03:02:13.148Z,6.10
2022-12-09T03:05:14.126Z,7.03
2022-12-09T03:08:17.006Z,7.33
2022-12-09T03:11:09.962Z,6.77
2022-12-09T03:14:03.814Z,7.07
2022-12-09T03:16:58.009Z,7.50
2022-12-09T03:19:52.606Z,7.00
2022-12-09T03:22:44.505Z,7.43
2022-12-09T03:25:39.218Z,7.30
2022-12-09T03:28:33.032Z,7.60
2022-12-09T03:31:28.215Z,7.80
2022-12-09T03:34:18.879Z,8.40
2022-12-09T03:37:07.739Z,7.90
2022-12-09T03:39:58.632Z,7.73
2022-12-09T03:42:52.001Z,7.67
2022-12-09T03:45:42.445Z,8.57
2022-12-09T03:48:29.356Z,9.30
2022-12-09T03:51:22.759Z,8.30
2022-12-09T03:54:18.330Z,8.23
2022-12-09T03:57:05.840Z,8.13
2022-12-09T03:59:58.813Z,8.40
2022-12-09T04:02:47.204Z,7.77
2022-12-09T04:05:34.441Z,8.23
2022-12-09T04:08:21.413Z,8.00
2022-12-09T04:11:07.860Z,8.00
2022-12-09T04:13:54.796Z,7.70
2022-12-09T04:16:41.894Z,7.67
2022-12-09T04:19:30.187Z,6.60
2022-12-09T04:22:17.111Z,7.10
2022-12-09T04:25:03.652Z,7.67
2022-12-09T04:27:50.027Z,7.53
2022-12-09T04:30:36.922Z,7.03
2022-12-09T04:33:24.637Z,7.70
2022-12-09T04:36:17.383Z,7.40
2022-12-09T04:39:04.730Z,7.23
2022-12-09T04:41:51.642Z,6.80
2022-12-09T04:44:38.612Z,7.67
2022-12-09T04:47:25.298Z,8.10
2022-12-09T04:50:13.900Z,7.43
2022-12-09T04:53:02.577Z,7.37
2022-12-09T04:55:49.215Z,6.97
2022-12-09T04:58:36.657Z,7.20
2022-12-09T05:01:30.592Z,7.50
2022-12-09T05:04:18.428Z,6.73
2022-12-09T05:07:05.533Z,6.17
2022-12-09T05:09:53.807Z,6.53
2022-12-09T05:12:41.015Z,6.97
2022-12-09T05:15:27.761Z,6.40
2022-12-09T05:18:14.956Z,6.53
2022-12-09T05:21:06.460Z,7.00
2022-12-09T05:23:53.595Z,6.90
2022-12-09T05:26:42.877Z,6.23
2022-12-09T05:29:29.975Z,6.73
2022-12-09T05:32:17.472Z,6.83
2022-12-09T05:35:04.549Z,6.30
2022-12-09T05:37:51.280Z,6.57
2022-12-09T05:40:38.244Z,6.70
2022-12-09T05:43:26.055Z,7.43
2022-12-09T05:46:14.753Z,7.03
2022-12-09T05:49:01.534Z,7.03
2022-12-09T05:51:48.533Z,7.03
2022-12-09T05:54:35.329Z,7.30
2022-12-09T05:57:23.850Z,7.40
2022-12-09T06:00:14.837Z,6.70
2022-12-09T06:03:02.647Z,6.93
2022-12-09T06:05:50.414Z,6.77
2022-12-09T06:08:37.924Z,5.83
2022-12-09T06:11:25.872Z,7.70
2022-12-09T06:14:14.568Z,6.10
2022-12-09T06:17:02.521Z,7.00
2022-12-09T06:19:49.247Z,6.43
2022-12-09T06:22:36.928Z,7.77
2022-12-09T06:25:24.031Z,6.07
2022-12-09T06:28:10.578Z,5.87
2022-12-09T06:30:58.585Z,5.90
2022-12-09T06:33:56.322Z,5.53
2022-12-09T06:36:44.656Z,6.30
2022-12-09T06:39:31.507Z,4.33
2022-12-09T06:42:18.575Z,4.77
2022-12-09T06:45:07.202Z,5.13
2022-12-09T06:48:04.142Z,5.30
2022-12-09T06:50:53.426Z,5.80
2022-12-09T06:53:40.308Z,5.90
2022-12-09T06:56:27.700Z,5.43
2022-12-09T06:59:14.462Z,5.37
2022-12-09T07:02:01.138Z,5.27
2022-12-09T07:04:53.647Z,5.63
2022-12-09T07:07:42.591Z,5.23
2022-12-09T07:10:29.913Z,5.07
2022-12-09T07:13:16.665Z,4.83
2022-12-09T07:16:03.782Z,6.10
2022-12-09T07:18:51.402Z,6.20
2022-12-09T07:21:38.356Z,5.73
2022-12-09T07:24:27.249Z,5.37
2022-12-09T07:27:19.593Z,5.47
2022-12-09T07:30:08.878Z,5.57
2022-12-09T07:32:56.057Z,5.77
2022-12-09T07:35:43.301Z,6.07
2022-12-09T07:38:30.376Z,5.67
2022-12-09T07:41:19.381Z,5.63
2022-12-09T07:44:06.818Z,5.60
2022-12-09T07:46:53.585Z,5.33
2022-12-09T07:49:40.630Z,5.80
2022-12-09T07:52:28.877Z,6.27
2022-12-09T07:55:15.764Z,5.57
2022-12-09T07:58:03.829Z,5.40
2022-12-09T08:00:50.817Z,6.30
2022-12-09T08:03:38.216Z,6.37
2022-12-09T08:06:28.148Z,6.47
2022-12-09T08:09:15.798Z,6.77
2022-12-09T08:12:02.829Z,6.53
2022-12-09T08:14:51.279Z,7.70
2022-12-09T08:17:38.158Z,6.97
2022-12-09T08:20:29.027Z,6.30
2022-12-09T08:23:16.643Z,6.47
2022-12-09T08:26:03.333Z,6.37
2022-12-09T08:28:51.722Z,5.73
2022-12-09T08:31:42.919Z,7.77
2022-12-09T08:34:30.876Z,6.87
2022-12-09T08:37:17.578Z,7.87
2022-12-09T08:40:05.061Z,6.70
2022-12-09T08:42:52.499Z,6.93
2022-12-09T08:45:41.622Z,6.43
2022-12-09T08:48:29.780Z,8.30
2022-12-09T08:51:16.670Z,8.03
2022-12-09T08:54:05.845Z,8.57
2022-12-09T08:56:56.251Z,7.67
2022-12-09T08:59:45.340Z,8.70
2022-12-09T09:02:33.055Z,7.57
2022-12-09T09:05:22.119Z,8.07
2022-12-09T09:08:09.018Z,7.20
2022-12-09T09:10:56.075Z,7.13
2022-12-09T09:13:46.078Z,7.77
2022-12-09T09:16:32.998Z,7.50
2022-12-09T09:19:22.777Z,7.33
2022-12-09T09:22:11.219Z,6.97
2022-12-09T09:24:58.200Z,7.37
2022-12-09T09:27:45.313Z,8.37
2022-12-09T09:30:32.464Z,7.33
2022-12-09T09:33:20.183Z,8.37
2022-12-09T09:36:10.957Z,7.53
2022-12-09T09:39:00.920Z,7.33
2022-12-09T09:41:54.393Z,7.50
2022-12-09T09:44:47.662Z,8.80
2022-12-09T09:47:41.050Z,7.90
2022-12-09T09:50:37.700Z,8.00
2022-12-09T09:53:30.856Z,8.40
2022-12-09T09:56:37.744Z,7.77
2022-12-09T09:59:41.250Z,8.03
2022-12-09T10:02:59.533Z,7.47
2022-12-09T10:05:55.359Z,8.80
2022-12-09T10:08:57.252Z,8.27
2022-12-09T10:12:17.622Z,8.27
2022-12-09T10:15:14.358Z,8.53
2022-12-09T10:18:16.852Z,8.43
2022-12-09T10:21:04.169Z,9.17
2022-12-09T10:23:51.860Z,8.27
2022-12-09T10:26:40.023Z,9.17
2022-12-09T10:29:49.918Z,9.03
2022-12-09T10:32:39.519Z,10.53
2022-12-09T10:35:31.025Z,10.80
2022-12-09T10:38:20.913Z,13.43
2022-12-09T10:41:38.834Z,13.40
2022-12-09T10:44:28.307Z,11.40
2022-12-09T10:47:26.228Z,13.10
2022-12-09T10:50:31.643Z,10.57
2022-12-09T10:53:18.666Z,10.70
2022-12-09T10:56:07.820Z,10.67
2022-12-09T10:59:12.893Z,11.23
2022-12-09T11:02:04.558Z,11.17
2022-12-09T11:04:51.671Z,12.57
2022-12-09T11:07:39.376Z,10.40
2022-12-09T11:10:29.634Z,12.20
2022-12-09T11:13:20.963Z,11.97
2022-12-09T11:16:09.068Z,12.07
2022-12-09T11:18:57.718Z,11.47
2022-12-09T11:21:44.607Z,12.30
2022-12-09T11:24:31.818Z,13.83
2022-12-09T11:27:33.968Z,13.43
2022-12-09T11:30:25.031Z,10.23
2022-12-09T11:33:27.500Z,12.43
2022-12-09T11:36:26.355Z,15.80
2022-12-09T11:39:26.909Z,12.47
2022-12-09T11:42:19.925Z,14.53
2022-12-09T11:45:19.021Z,13.33
2022-12-09T11:48:32.566Z,13.10
2022-12-09T11:51:28.175Z,14.87
2022-12-09T11:54:24.151Z,13.93
2022-12-09T11:57:25.378Z,13.20
2022-12-09T12:00:22.411Z,12.67
2022-12-09T12:03:18.851Z,13.47
2022-12-09T12:06:16.623Z,13.43
2022-12-09T12:09:14.894Z,11.70
2022-12-09T12:12:11.803Z,11.20
2022-12-09T12:15:11.156Z,12.77
2022-12-09T12:17:58.205Z,13.93
2022-12-09T12:21:11.219Z,15.37
2022-12-09T12:24:43.076Z,14.57
2022-12-09T12:27:59.863Z,14.23
2022-12-09T12:30:56.960Z,14.10
2022-12-09T12:37:31.078Z,12.87
2022-12-09T12:40:37.208Z,13.27
2022-12-09T12:44:07.341Z,13.63
2022-12-09T12:47:09.531Z,11.67
2022-12-09T12:50:43.507Z,12.53
2022-12-09T12:53:43.516Z,12.13
2022-12-09T12:56:41.272Z,13.97
2022-12-09T12:59:39.250Z,13.23
2022-12-09T13:02:42.369Z,13.73
2022-12-09T13:05:41.667Z,13.60
2022-12-09T13:08:36.739Z,13.37
2022-12-09T13:11:32.620Z,14.87
2022-12-09T13:14:32.107Z,14.30
2022-12-09T13:17:21.420Z,14.03
2022-12-09T13:20:17.255Z,14.27
2022-12-09T13:23:16.609Z,15.03
2022-12-09T13:26:27.444Z,15.70
2022-12-09T13:29:35.801Z,14.80
2022-12-09T13:32:48.914Z,14.57
2022-12-09T13:35:44.239Z,16.27
2022-12-09T13:38:39.698Z,16.73
2022-12-09T13:42:03.830Z,13.90
2022-12-09T13:44:51.910Z,16.47
2022-12-09T13:47:38.483Z,14.97
2022-12-09T13:50:31.025Z,16.37
2022-12-09T13:53:28.062Z,16.00
2022-12-09T13:56:27.500Z,15.67
2022-12-09T13:59:40.355Z,16.47
2022-12-09T14:02:42.145Z,14.13
2022-12-09T14:05:36.588Z,14.40
2022-12-09T14:08:29.871Z,15.23
2022-12-09T14:11:52.236Z,14.97
2022-12-09T14:14:57.620Z,14.90
2022-12-09T14:18:05.562Z,14.53
2022-12-09T14:21:27.908Z,13.93
2022-12-09T14:24:35.323Z,14.43
2022-12-09T14:27:24.664Z,12.37
2022-12-09T14:30:49.798Z,14.50
2022-12-09T14:33:40.107Z,13.83
2022-12-09T14:36:34.133Z,14.53
2022-12-09T14:39:31.081Z,13.60
2022-12-09T14:42:36.022Z,13.97
2022-12-09T14:45:35.116Z,12.83
2022-12-09T14:48:25.717Z,13.10
2022-12-09T14:51:20.760Z,17.03
2022-12-09T14:54:18.718Z,12.90
2022-12-09T14:57:17.658Z,14.67
2022-12-09T15:00:09.242Z,15.33
2022-12-09T15:03:30.624Z,12.90
2022-12-09T15:06:06.823Z,12.87
2022-12-09T15:08:58.018Z,12.90
2022-12-09T15:11:46.078Z,14.27
2022-12-09T15:14:32.862Z,11.13
2022-12-09T15:17:30.355Z,12.67
2022-12-09T15:20:25.790Z,11.13
2022-12-09T15:23:21.608Z,12.37
2022-12-09T15:26:19.364Z,12.77
2022-12-09T15:29:07.263Z,13.03
2022-12-09T15:31:54.521Z,12.93
2022-12-09T15:34:41.444Z,12.03
2022-12-09T15:37:29.991Z,11.67
2022-12-09T15:40:22.158Z,11.07
2022-12-09T15:43:12.823Z,14.33
2022-12-09T15:46:01.082Z,12.33
2022-12-09T15:48:55.317Z,12.07
2022-12-09T15:51:46.454Z,12.47
2022-12-09T15:54:42.180Z,12.83
2022-12-09T15:57:30.008Z,10.83
2022-12-09T16:00:17.343Z,12.67
2022-12-09T16:03:07.557Z,11.77
2022-12-09T16:05:57.472Z,11.83
2022-12-09T16:08:45.873Z,12.17
2022-12-09T16:11:37.483Z,12.00
2022-12-09T16:14:26.037Z,11.77
2022-12-09T16:17:23.930Z,11.27
2022-12-09T16:20:43.988Z,10.63
2022-12-09T16:23:33.613Z,11.40
2022-12-09T16:26:30.602Z,10.13
2022-12-09T16:29:26.294Z,10.97
2022-12-09T16:32:24.998Z,10.83
2022-12-09T16:35:24.028Z,9.07
2022-12-09T16:38:20.602Z,8.40
2022-12-09T16:41:12.430Z,10.40
2022-12-09T16:43:59.347Z,10.67
2022-12-09T16:46:46.016Z,9.93
2022-12-09T16:49:32.593Z,10.20
2022-12-09T16:52:23.751Z,9.37
2022-12-09T16:55:23.351Z,11.40
2022-12-09T16:58:12.006Z,10.07
2022-12-09T17:01:01.343Z,10.20
2022-12-09T17:03:53.678Z,9.83
2022-12-09T17:06:40.396Z,10.13
2022-12-09T17:09:27.353Z,9.93
2022-12-09T17:12:15.600Z,10.03
2022-12-09T17:15:02.275Z,10.07
2022-12-09T17:17:49.938Z,10.03
2022-12-09T17:20:41.739Z,8.83
2022-12-09T17:23:31.453Z,10.30
2022-12-09T17:26:22.175Z,10.90
2022-12-09T17:29:10.121Z,10.87
2022-12-09T17:31:56.666Z,9.93
2022-12-09T17:34:43.562Z,10.63
2022-12-09T17:37:30.325Z,9.43
2022-12-09T17:40:18.530Z,9.00
2022-12-09T17:43:05.388Z,8.23
2022-12-09T17:45:53.610Z,9.97
2022-12-09T17:48:41.855Z,9.60
2022-12-09T17:51:35.445Z,10.90
2022-12-09T17:54:23.266Z,10.20
2022-12-09T17:57:09.871Z,9.47
2022-12-09T17:59:56.610Z,10.27
2022-12-09T18:02:45.005Z,10.60
2022-12-09T18:05:31.652Z,10.43
2022-12-09T18:08:18.315Z,9.03
2022-12-09T18:11:06.189Z,9.20
2022-12-09T18:13:53.998Z,9.60
2022-12-09T18:16:40.728Z,9.87
2022-12-09T18:19:30.237Z,10.37
2022-12-09T18:22:17.180Z,9.93
2022-12-09T18:25:03.957Z,11.13
2022-12-09T18:27:50.655Z,10.47
2022-12-09T18:30:39.926Z,10.90
2022-12-09T18:33:26.775Z,10.90
2022-12-09T18:36:17.762Z,11.33
2022-12-09T18:39:05.465Z,9.17
2022-12-09T18:41:52.600Z,10.70
2022-12-09T18:44:39.230Z,11.27
2022-12-09T18:47:25.926Z,9.73
2022-12-09T18:50:12.761Z,10.33
2022-12-09T18:53:00.807Z,10.67
2022-12-09T18:55:47.191Z,11.37
2022-12-09T18:59:04.200Z,11.37
2022-12-09T19:01:43.609Z,9.97
2022-12-09T19:04:31.611Z,10.40
2022-12-09T19:07:18.520Z,9.57
2022-12-09T19:10:07.493Z,11.07
2022-12-09T19:12:57.056Z,11.67
2022-12-09T19:15:44.490Z,10.87
2022-12-09T19:18:34.435Z,9.77
2022-12-09T19:21:24.048Z,10.83
2022-12-09T19:24:16.046Z,9.50
2022-12-09T19:27:04.056Z,10.07
2022-12-09T19:29:50.918Z,9.47
2022-12-09T19:32:53.090Z,10.90
2022-12-09T19:35:40.031Z,10.50
2022-12-09T19:38:26.897Z,10.83
2022-12-09T19:41:13.792Z,10.33
2022-12-09T19:44:05.981Z,10.47
2022-12-09T19:46:52.986Z,9.80
2022-12-09T19:49:41.308Z,10.40
2022-12-09T19:52:28.340Z,11.13
2022-12-09T19:55:15.524Z,11.37
2022-12-09T19:58:03.473Z,10.87
2022-12-09T20:00:51.665Z,10.23
2022-12-09T20:03:40.049Z,11.03
2022-12-09T20:06:28.018Z,11.90
2022-12-09T20:09:19.268Z,11.80
2022-12-09T20:12:06.626Z,10.73
2022-12-09T20:14:53.172Z,11.20
2022-12-09T20:17:41.562Z,9.93
2022-12-09T20:20:28.651Z,9.70
2022-12-09T20:23:15.439Z,10.07
2022-12-09T20:26:06.517Z,11.50
2022-12-09T20:28:56.658Z,9.13
2022-12-09T20:31:44.199Z,9.73
2022-12-09T20:34:32.403Z,10.70
2022-12-09T20:37:19.460Z,9.87
2022-12-09T20:40:07.955Z,9.67
2022-12-09T20:42:54.804Z,10.20
2022-12-09T20:45:41.442Z,9.77
2022-12-09T20:48:28.136Z,11.30
2022-12-09T20:51:21.113Z,10.17
2022-12-09T20:54:11.057Z,11.93
2022-12-09T20:56:58.016Z,10.27
2022-12-09T20:59:44.624Z,10.80
2022-12-09T21:02:34.804Z,10.47
2022-12-09T21:05:21.327Z,10.30
2022-12-09T21:08:09.694Z,8.50
2022-12-09T21:11:04.279Z,9.17
2022-12-09T21:13:54.177Z,8.90
2022-12-09T21:16:43.257Z,9.70
2022-12-09T21:19:33.209Z,9.50
2022-12-09T21:22:20.296Z,8.33
2022-12-09T21:25:10.016Z,8.47
2022-12-09T21:27:57.864Z,9.57
2022-12-09T21:30:44.526Z,10.13
2022-12-09T21:33:31.126Z,10.97
2022-12-09T21:36:20.961Z,9.37
2022-12-09T21:39:09.047Z,9.03
2022-12-09T21:41:56.882Z,8.80
2022-12-09T21:44:43.699Z,9.60
2022-12-09T21:47:30.531Z,9.33
2022-12-09T21:50:17.079Z,9.93
2022-12-09T21:53:04.007Z,9.20
2022-12-09T21:55:52.885Z,9.40
2022-12-09T21:58:41.371Z,9.83
2022-12-09T22:01:41.673Z,7.87
2022-12-09T22:04:31.272Z,8.93
2022-12-09T22:07:18.126Z,8.33
2022-12-09T22:10:06.216Z,8.43
2022-12-09T22:12:53.399Z,9.77
2022-12-09T22:15:41.314Z,8.97
2022-12-09T22:18:27.927Z,8.63
2022-12-09T22:21:26.764Z,10.17
2022-12-09T22:24:15.164Z,8.97
2022-12-09T22:27:02.135Z,10.00
2022-12-09T22:29:48.731Z,8.37
2022-12-09T22:32:41.142Z,8.43
2022-12-09T22:35:29.554Z,9.57
2022-12-09T22:38:16.279Z,8.10
2022-12-09T22:41:05.368Z,8.50
2022-12-09T22:43:52.513Z,9.70
2022-12-09T22:46:39.459Z,8.70
2022-12-09T22:49:27.506Z,7.07
2022-12-09T22:52:14.147Z,7.50
2022-12-09T22:55:00.669Z,10.17
2022-12-09T22:57:47.566Z,8.83
2022-12-09T23:00:34.502Z,9.27
2022-12-09T23:03:22.369Z,8.60
2022-12-09T23:06:11.661Z,9.20
2022-12-09T23:08:58.981Z,9.63
2022-12-09T23:11:45.864Z,10.33
2022-12-09T23:14:32.580Z,10.30
2022-12-09T23:17:19.643Z,9.30
2022-12-09T23:20:07.673Z,9.47
2022-12-09T23:22:56.162Z,8.33
2022-12-09T23:25:43.097Z,9.13
2022-12-09T23:28:30.085Z,8.83
2022-12-09T23:31:19.741Z,11.20
2022-12-09T23:34:08.327Z,9.23
2022-12-09T23:36:55.647Z,9.87
2022-12-09T23:39:43.706Z,9.07
2022-12-09T23:42:30.490Z,9.37
2022-12-09T23:45:17.427Z,9.43
2022-12-09T23:48:04.215Z,9.00
2022-12-09T23:50:51.069Z,8.83
2022-12-09T23:53:38.267Z,8.67
2022-12-09T23:56:28.008Z,8.67
2022-12-09T23:59:15.423Z,9.90
